Time;durP1;ratioP1;P1;durP2;ratioP2;P2;SDS_P1;SDS_P2;PMS_P1;PMS_P2;Temp;Humidity;BMP_temperature;BMP_pressure;BME280_temperature;BME280_humidity;BME280_pressure;Samples;Min_cycle;Max_cycle;Signal;HPM_P1;HPM_P2
2022/10/09 05:17:57;;;;;;;8.93;7.72;;;;;;;;;;6169562;22;20027;-83
2022/10/09 05:20:23;;;;;;;9.30;8.40;;;;;;;;;;6194350;23;20095;-83
2022/10/09 05:22:48;;;;;;;10.60;7.90;;;;;;;;;;6221976;23;19997;-83
2022/10/09 05:25:14;;;;;;;11.00;9.15;;;;;;;;;;6197070;23;20054;-83
2022/10/09 05:27:39;;;;;;;10.20;8.40;;;;;;;;;;6223719;23;20011;-83
2022/10/09 05:30:07;;;;;;;13.02;10.00;;;;;;;;;;6220417;23;20420;-86
2022/10/09 05:32:33;;;;;;;11.80;9.80;;;;;;;;;;6222358;23;20478;-95
2022/10/09 05:34:58;;;;;;;10.20;8.68;;;;;;;;;;6194328;23;20005;-87
2022/10/09 05:37:24;;;;;;;9.25;7.85;;;;;;;;;;6217586;23;20012;-86
2022/10/09 05:39:49;;;;;;;10.63;8.57;;;;;;;;;;6218192;23;20004;-89
2022/10/09 05:42:15;;;;;;;8.95;8.02;;;;;;;;;;6217654;23;20005;-90
2022/10/09 05:44:40;;;;;;;11.73;9.13;;;;;;;;;;6190242;23;20001;-90
2022/10/09 05:47:06;;;;;;;10.57;8.30;;;;;;;;;;6216645;23;20190;-90
2022/10/09 05:49:31;;;;;;;9.98;7.93;;;;;;;;;;6217055;23;20426;-87
2022/10/09 05:51:56;;;;;;;10.18;8.55;;;;;;;;;;6217232;23;20086;-89
2022/10/09 05:54:22;;;;;;;9.35;8.35;;;;;;;;;;6216458;23;20456;-87
2022/10/09 05:56:47;;;;;;;9.63;8.13;;;;;;;;;;6216712;23;20008;-84
2022/10/09 05:59:18;;;;;;;10.48;8.95;;;;;;;;;;6216168;23;19996;-85
2022/10/09 06:01:50;;;;;;;8.75;7.40;;;;;;;;;;6216224;23;20027;-88
2022/10/09 06:04:20;;;;;;;11.32;8.63;;;;;;;;;;6216563;23;20301;-84
2022/10/09 06:06:47;;;;;;;9.68;8.15;;;;;;;;;;6216211;23;20005;-84
2022/10/09 06:09:15;;;;;;;11.35;8.45;;;;;;;;;;6216605;23;20005;-85
2022/10/09 06:11:41;;;;;;;9.45;7.95;;;;;;;;;;6216052;23;20027;-84
2022/10/09 06:14:08;;;;;;;11.40;8.70;;;;;;;;;;6216021;23;20309;-82
2022/10/09 06:16:40;;;;;;;11.63;9.07;;;;;;;;;;6189881;23;20015;-85
2022/10/09 06:19:06;;;;;;;9.95;8.93;;;;;;;;;;6216305;23;20012;-89
2022/10/09 06:21:33;;;;;;;10.80;8.13;;;;;;;;;;6216391;23;20008;-90
2022/10/09 06:24:00;;;;;;;10.68;7.97;;;;;;;;;;6216327;23;19996;-90
2022/10/09 06:26:28;;;;;;;10.68;8.60;;;;;;;;;;6216217;23;20123;-91
2022/10/09 06:28:54;;;;;;;10.02;8.23;;;;;;;;;;6216367;23;20005;-84
2022/10/09 06:31:25;;;;;;;9.00;7.38;;;;;;;;;;6216048;23;20116;-88
2022/10/09 06:33:52;;;;;;;10.23;8.57;;;;;;;;;;6190078;23;20015;-86
2022/10/09 06:36:23;;;;;;;12.70;8.90;;;;;;;;;;6189575;23;20005;-80
2022/10/09 06:38:50;;;;;;;13.23;10.13;;;;;;;;;;6216484;23;20084;-82
2022/10/09 06:41:20;;;;;;;10.25;9.25;;;;;;;;;;6215910;23;20191;-82
2022/10/09 06:43:54;;;;;;;10.55;9.25;;;;;;;;;;6216496;23;20036;-82
2022/10/09 06:46:22;;;;;;;13.73;10.07;;;;;;;;;;6218275;23;20001;-83
2022/10/09 06:48:48;;;;;;;12.35;10.88;;;;;;;;;;6218110;23;20004;-83
2022/10/09 06:51:16;;;;;;;14.45;10.60;;;;;;;;;;6191642;23;20016;-84
2022/10/09 06:53:46;;;;;;;11.98;10.13;;;;;;;;;;6218474;23;20008;-84
2022/10/09 06:56:12;;;;;;;12.07;9.68;;;;;;;;;;6217823;23;20028;-85
2022/10/09 06:58:39;;;;;;;11.80;10.40;;;;;;;;;;6218280;23;20328;-84
2022/10/09 07:01:05;;;;;;;12.82;10.82;;;;;;;;;;6191273;23;20073;-82
2022/10/09 09:25:27;;;;;;;8.23;6.90;;;;;;;;;;6228395;22;20054;-81
2022/10/09 09:27:56;;;;;;;8.13;7.07;;;;;;;;;;6246719;23;20012;-82
2022/10/09 09:30:30;;;;;;;7.93;7.13;;;;;;;;;;6246798;23;20043;-81
2022/10/09 09:33:14;;;;;;;7.65;6.82;;;;;;;;;;6246737;22;20012;-80
2022/10/09 09:36:03;;;;;;;10.20;7.22;;;;;;;;;;6219822;23;20004;-81
2022/10/09 09:38:28;;;;;;;8.27;6.73;;;;;;;;;;6245489;23;20008;-83
2022/10/09 09:40:54;;;;;;;8.00;6.18;;;;;;;;;;6246551;23;20330;-81
2022/10/09 09:43:22;;;;;;;8.07;6.93;;;;;;;;;;6246346;22;20000;-80
2022/10/09 09:45:52;;;;;;;11.93;9.20;;;;;;;;;;6246607;23;20000;-83
2022/10/09 09:48:36;;;;;;;10.57;8.55;;;;;;;;;;6246314;23;20029;-80
2022/10/09 09:51:04;;;;;;;11.27;7.53;;;;;;;;;;6219888;23;20087;-83
2022/10/09 09:53:38;;;;;;;8.27;7.47;;;;;;;;;;6246440;22;20003;-83
2022/10/09 09:56:05;;;;;;;9.52;7.45;;;;;;;;;;6246530;23;20673;-83
2022/10/09 09:58:38;;;;;;;8.88;7.10;;;;;;;;;;6246605;23;20079;-81
2022/10/09 10:01:05;;;;;;;8.57;7.65;;;;;;;;;;6219516;23;20012;-83
2022/10/09 10:03:33;;;;;;;11.13;6.95;;;;;;;;;;6246320;22;20000;-82
2022/10/09 10:05:58;;;;;;;8.70;7.35;;;;;;;;;;6246473;23;20019;-82
2022/10/09 10:08:26;;;;;;;7.78;6.35;;;;;;;;;;6246425;23;20005;-82
2022/10/09 10:10:53;;;;;;;7.25;6.55;;;;;;;;;;6246529;23;20320;-81
2022/10/09 10:13:27;;;;;;;9.07;6.60;;;;;;;;;;6246579;22;20075;-81
2022/10/09 10:15:54;;;;;;;6.13;5.53;;;;;;;;;;6246492;23;20024;-81
2022/10/09 10:18:23;;;;;;;5.90;5.30;;;;;;;;;;6246168;23;20000;-82
2022/10/09 10:20:54;;;;;;;7.32;5.70;;;;;;;;;;6246010;23;20007;-81
2022/10/09 10:23:36;;;;;;;6.70;4.97;;;;;;;;;;6246338;22;20035;-80
2022/10/09 10:26:08;;;;;;;6.75;6.03;;;;;;;;;;6246197;23;20009;-78
2022/10/09 10:28:41;;;;;;;9.88;5.90;;;;;;;;;;6244947;23;20004;-77
2022/10/09 10:31:13;;;;;;;10.93;6.63;;;;;;;;;;6246136;23;20071;-81
2022/10/09 10:33:41;;;;;;;7.20;6.40;;;;;;;;;;6245962;22;19996;-78
2022/10/09 10:36:09;;;;;;;8.75;6.00;;;;;;;;;;6246264;23;20004;-80
2022/10/09 10:39:22;;;;;;;7.43;5.78;;;;;;;;;;6245797;23;19996;-81
2022/10/09 10:41:51;;;;;;;7.32;5.57;;;;;;;;;;6245845;22;20000;-81
2022/10/09 10:44:25;;;;;;;7.00;5.80;;;;;;;;;;6246129;23;20441;-80
2022/10/09 10:47:00;;;;;;;7.07;6.10;;;;;;;;;;6246215;23;20367;-80
2022/10/09 10:49:26;;;;;;;7.50;5.57;;;;;;;;;;6246138;23;20008;-80
2022/10/09 10:51:57;;;;;;;8.27;5.85;;;;;;;;;;6245988;22;20000;-81
2022/10/09 10:54:41;;;;;;;7.13;5.68;;;;;;;;;;6246032;23;20004;-80
2022/10/09 10:57:33;;;;;;;8.43;7.15;;;;;;;;;;6245928;23;19996;-80
2022/10/09 11:00:06;;;;;;;9.00;6.07;;;;;;;;;;6246027;23;20038;-81
2022/10/09 11:03:04;;;;;;;7.65;5.97;;;;;;;;;;6246017;22;20023;-79
2022/10/09 11:05:30;;;;;;;9.98;8.68;;;;;;;;;;6246211;23;20028;-84
2022/10/09 11:08:14;;;;;;;9.60;7.32;;;;;;;;;;6246414;23;20331;-84
2022/10/09 11:11:07;;;;;;;7.20;6.45;;;;;;;;;;6219364;23;20008;-85
2022/10/09 11:13:42;;;;;;;6.22;5.63;;;;;;;;;;6246193;22;20338;-82
2022/10/09 11:16:22;;;;;;;6.35;5.72;;;;;;;;;;6246257;23;19999;-82
2022/10/09 11:19:30;;;;;;;10.35;6.05;;;;;;;;;;6219301;23;20004;-84
2022/10/09 11:22:11;;;;;;;5.97;5.15;;;;;;;;;;6218918;23;20034;-85
2022/10/09 11:25:00;;;;;;;6.93;6.22;;;;;;;;;;6219462;23;20000;-83
2022/10/09 11:27:48;;;;;;;9.18;6.38;;;;;;;;;;6246143;23;20094;-84
2022/10/09 11:30:16;;;;;;;7.90;5.70;;;;;;;;;;6246992;23;20031;-83
2022/10/09 11:32:51;;;;;;;6.40;5.60;;;;;;;;;;6247877;22;20323;-84
2022/10/09 11:35:22;;;;;;;7.18;5.20;;;;;;;;;;6221134;23;20015;-86
2022/10/09 11:38:28;;;;;;;6.72;5.57;;;;;;;;;;6221111;23;20057;-85
2022/10/09 11:40:55;;;;;;;7.25;5.43;;;;;;;;;;6220726;23;20008;-83
2022/10/09 11:43:53;;;;;;;7.07;5.60;;;;;;;;;;6247842;22;20001;-84
2022/10/09 11:46:56;;;;;;;8.05;6.05;;;;;;;;;;6234214;23;20015;-85
2022/10/09 11:49:48;;;;;;;7.10;6.10;;;;;;;;;;6220701;23;20427;-84
2022/10/09 11:52:23;;;;;;;7.50;5.07;;;;;;;;;;6220926;23;20000;-83
2022/10/09 11:54:48;;;;;;;6.07;5.07;;;;;;;;;;6247708;23;19996;-84
2022/10/09 11:57:24;;;;;;;5.03;4.60;;;;;;;;;;6221032;23;20015;-84
2022/10/09 12:00:03;;;;;;;7.57;4.78;;;;;;;;;;6247449;23;20419;-83
2022/10/09 12:02:29;;;;;;;7.17;4.80;;;;;;;;;;6247762;22;20348;-85
2022/10/09 12:04:55;;;;;;;11.43;7.10;;;;;;;;;;6247687;23;20009;-84
2022/10/09 12:07:34;;;;;;;7.95;7.05;;;;;;;;;;6220711;23;20085;-84
2022/10/09 12:10:06;;;;;;;6.53;5.78;;;;;;;;;;6247683;23;20031;-83
2022/10/09 12:12:33;;;;;;;9.75;5.32;;;;;;;;;;6247636;22;20049;-83
2022/10/09 12:15:20;;;;;;;8.48;5.07;;;;;;;;;;6247823;23;19996;-84
2022/10/09 12:17:48;;;;;;;5.80;5.20;;;;;;;;;;6247410;23;20011;-83
2022/10/09 12:20:23;;;;;;;4.57;4.07;;;;;;;;;;6220633;23;20031;-82
2022/10/09 12:22:56;;;;;;;7.13;5.05;;;;;;;;;;6247235;22;20000;-83
2022/10/09 12:25:29;;;;;;;6.13;4.80;;;;;;;;;;6247336;23;20431;-83
2022/10/09 12:27:56;;;;;;;6.60;5.85;;;;;;;;;;6247522;23;20478;-83
2022/10/09 12:30:28;;;;;;;5.60;4.72;;;;;;;;;;6247317;23;20004;-82
2022/10/09 12:33:24;;;;;;;5.25;4.30;;;;;;;;;;6247397;22;20015;-85
2022/10/09 12:36:10;;;;;;;5.28;3.80;;;;;;;;;;6247478;23;20475;-83
2022/10/09 12:38:35;;;;;;;4.68;4.03;;;;;;;;;;6220362;23;20008;-82
2022/10/09 12:41:10;;;;;;;6.18;3.85;;;;;;;;;;6247111;23;20053;-82
2022/10/09 12:43:42;;;;;;;7.70;5.50;;;;;;;;;;6219714;23;20423;-82
2022/10/09 12:46:07;;;;;;;6.05;5.45;;;;;;;;;;6247500;23;20023;-82
2022/10/09 12:48:38;;;;;;;5.80;4.85;;;;;;;;;;6247324;23;20063;-83
2022/10/09 12:51:13;;;;;;;4.57;4.13;;;;;;;;;;6247010;23;20384;-83
2022/10/09 12:53:46;;;;;;;6.72;5.40;;;;;;;;;;6247282;22;20084;-82
2022/10/09 12:56:16;;;;;;;4.95;4.18;;;;;;;;;;6247386;23;20371;-82
2022/10/09 12:58:42;;;;;;;4.45;3.88;;;;;;;;;;6247265;23;20043;-81
2022/10/09 13:01:13;;;;;;;4.82;3.55;;;;;;;;;;6220209;23;20084;-80
2022/10/09 13:03:51;;;;;;;8.60;3.95;;;;;;;;;;6246757;22;20046;-83
2022/10/09 13:06:20;;;;;;;4.60;3.97;;;;;;;;;;6247117;23;19996;-81
2022/10/09 13:08:55;;;;;;;5.00;3.70;;;;;;;;;;6247293;23;20004;-81
2022/10/09 13:11:36;;;;;;;5.78;3.70;;;;;;;;;;6246850;22;20366;-81
2022/10/09 13:14:03;;;;;;;4.47;3.65;;;;;;;;;;6247072;23;20008;-80
2022/10/09 13:16:43;;;;;;;7.03;5.20;;;;;;;;;;6246967;23;20059;-80
2022/10/09 13:19:25;;;;;;;14.63;7.22;;;;;;;;;;6246905;23;20000;-81
2022/10/09 13:22:14;;;;;;;5.40;4.55;;;;;;;;;;6219731;23;20347;-81
2022/10/09 13:24:40;;;;;;;8.02;5.43;;;;;;;;;;6246919;23;20005;-80
2022/10/09 13:27:06;;;;;;;7.43;4.13;;;;;;;;;;6246685;23;20071;-77
2022/10/09 13:29:31;;;;;;;4.68;3.50;;;;;;;;;;6246843;23;20391;-78
2022/10/09 13:31:57;;;;;;;3.63;3.33;;;;;;;;;;6246804;22;20007;-78
2022/10/09 13:34:23;;;;;;;6.30;3.58;;;;;;;;;;6246901;23;20004;-78
2022/10/09 13:36:49;;;;;;;4.55;4.00;;;;;;;;;;6219838;23;20389;-77
2022/10/09 13:39:15;;;;;;;5.13;4.50;;;;;;;;;;6246685;23;20004;-81
2022/10/09 13:41:43;;;;;;;6.10;4.40;;;;;;;;;;6246596;22;20423;-78
2022/10/09 13:44:08;;;;;;;7.03;4.25;;;;;;;;;;6246070;23;20042;-77
2022/10/09 13:46:34;;;;;;;5.40;4.60;;;;;;;;;;6246269;23;20004;-78
2022/10/09 13:48:59;;;;;;;4.95;4.13;;;;;;;;;;6246406;23;20012;-77
2022/10/09 13:51:25;;;;;;;5.75;3.80;;;;;;;;;;6246110;22;20004;-77
2022/10/09 13:53:50;;;;;;;6.72;6.00;;;;;;;;;;6245728;23;20004;-79
2022/10/09 13:56:16;;;;;;;9.70;7.05;;;;;;;;;;6246169;23;20003;-78
2022/10/09 13:58:41;;;;;;;8.77;6.82;;;;;;;;;;6246271;23;20332;-77
2022/10/09 14:01:08;;;;;;;6.88;4.68;;;;;;;;;;6246211;23;20549;-79
2022/10/09 14:03:34;;;;;;;5.00;4.35;;;;;;;;;;6246108;22;20054;-80
2022/10/09 14:06:02;;;;;;;4.13;3.72;;;;;;;;;;6245832;23;20000;-77
2022/10/09 14:08:28;;;;;;;6.03;4.47;;;;;;;;;;6246451;23;20004;-77
2022/10/09 14:10:54;;;;;;;6.47;4.43;;;;;;;;;;6219476;23;20364;-79
2022/10/09 14:13:20;;;;;;;7.30;4.70;;;;;;;;;;6246304;22;20003;-82
2022/10/09 14:15:46;;;;;;;5.75;4.35;;;;;;;;;;6219500;23;20426;-78
2022/10/09 14:18:11;;;;;;;4.38;3.92;;;;;;;;;;6246287;23;20071;-77
2022/10/09 14:20:37;;;;;;;5.65;4.00;;;;;;;;;;6246632;23;20087;-77
2022/10/09 14:23:03;;;;;;;6.18;4.95;;;;;;;;;;6246121;22;20036;-76
2022/10/09 14:25:28;;;;;;;4.70;4.28;;;;;;;;;;6246062;23;20028;-77
2022/10/09 14:27:54;;;;;;;8.20;4.88;;;;;;;;;;6246375;23;20438;-77
2022/10/09 14:30:19;;;;;;;5.15;4.03;;;;;;;;;;6246384;23;20336;-77
2022/10/09 14:32:45;;;;;;;5.10;4.32;;;;;;;;;;6245790;22;20416;-77
2022/10/09 14:35:10;;;;;;;4.68;4.10;;;;;;;;;;6246208;23;20087;-77
2022/10/09 14:37:35;;;;;;;4.38;3.83;;;;;;;;;;6246104;23;20079;-77
2022/10/09 14:40:01;;;;;;;5.63;3.90;;;;;;;;;;6245772;23;20301;-77
2022/10/09 14:42:27;;;;;;;6.63;4.15;;;;;;;;;;6245723;22;20477;-78
2022/10/09 14:44:53;;;;;;;5.63;3.90;;;;;;;;;;6245508;23;20004;-78
2022/10/09 14:47:18;;;;;;;4.90;4.40;;;;;;;;;;6245254;23;20058;-78
2022/10/09 14:49:44;;;;;;;4.20;3.80;;;;;;;;;;6245313;23;20000;-79
2022/10/09 14:52:09;;;;;;;5.53;3.72;;;;;;;;;;6245245;22;20000;-79
2022/10/09 14:54:35;;;;;;;4.30;3.90;;;;;;;;;;6246193;23;20355;-79
2022/10/09 14:57:00;;;;;;;4.45;3.70;;;;;;;;;;6246296;23;20064;-78
2022/10/09 14:59:26;;;;;;;4.90;3.97;;;;;;;;;;6246391;23;20038;-78
2022/10/09 15:01:51;;;;;;;6.78;4.00;;;;;;;;;;6246115;22;20000;-79
2022/10/09 15:04:17;;;;;;;4.22;3.58;;;;;;;;;;6246345;23;20004;-78
2022/10/09 15:06:42;;;;;;;5.80;3.80;;;;;;;;;;6247876;23;20011;-79
2022/10/09 15:09:08;;;;;;;4.55;3.80;;;;;;;;;;6248039;23;20327;-80
2022/10/09 15:11:34;;;;;;;5.07;3.55;;;;;;;;;;6248319;22;20004;-79
2022/10/09 15:14:00;;;;;;;5.82;3.92;;;;;;;;;;6248307;23;20394;-79
2022/10/09 15:16:25;;;;;;;3.95;3.65;;;;;;;;;;6248389;23;20000;-79
2022/10/09 15:18:53;;;;;;;4.10;3.65;;;;;;;;;;6247991;23;20032;-79
2022/10/09 15:21:22;;;;;;;4.20;3.80;;;;;;;;;;6248058;23;20083;-79
2022/10/09 15:23:48;;;;;;;;;;;;;;;;;;6248656;23;20015;-79
2022/10/09 15:26:14;;;;;;;6.68;4.28;;;;;;;;;;6247855;23;19912;-79
2022/10/09 15:28:41;;;;;;;5.05;4.15;;;;;;;;;;6248479;23;20005;-79
2022/10/09 15:31:23;;;;;;;6.00;4.13;;;;;;;;;;6248106;23;20004;-79
2022/10/09 15:33:53;;;;;;;3.97;3.67;;;;;;;;;;6247730;23;20008;-79
2022/10/09 15:36:20;;;;;;;7.35;4.25;;;;;;;;;;6247855;23;20004;-79
2022/10/09 15:38:45;;;;;;;5.07;3.90;;;;;;;;;;6247997;23;20004;-79
2022/10/09 15:41:23;;;;;;;4.97;4.20;;;;;;;;;;6247982;23;20015;-79
2022/10/09 15:43:50;;;;;;;3.88;3.33;;;;;;;;;;6247784;23;20420;-79
2022/10/09 15:46:16;;;;;;;6.22;3.58;;;;;;;;;;6247740;23;20003;-79
2022/10/09 15:48:42;;;;;;;6.55;3.70;;;;;;;;;;6247811;23;20009;-79
2022/10/09 15:51:12;;;;;;;4.25;3.38;;;;;;;;;;6247891;23;20012;-79
2022/10/09 15:53:37;;;;;;;5.82;3.97;;;;;;;;;;6247515;22;20067;-79
2022/10/09 15:56:06;;;;;;;4.50;3.88;;;;;;;;;;6247719;23;20458;-79
2022/10/09 15:58:31;;;;;;;4.22;3.70;;;;;;;;;;6247760;23;20008;-79
2022/10/09 16:01:02;;;;;;;4.32;3.92;;;;;;;;;;6247556;23;20008;-79
2022/10/09 16:03:28;;;;;;;4.85;3.88;;;;;;;;;;6247438;22;20007;-79
2022/10/09 16:05:55;;;;;;;4.68;3.92;;;;;;;;;;6247962;23;20000;-79
2022/10/09 16:08:20;;;;;;;4.43;3.88;;;;;;;;;;6247325;23;20008;-79
2022/10/09 16:10:50;;;;;;;4.30;3.80;;;;;;;;;;6247192;23;20437;-79
2022/10/09 16:13:16;;;;;;;4.20;3.90;;;;;;;;;;6246932;22;20004;-79
2022/10/09 16:15:43;;;;;;;6.25;4.00;;;;;;;;;;6247208;23;20004;-80
2022/10/09 16:18:09;;;;;;;5.05;4.55;;;;;;;;;;6246619;23;20004;-80
2022/10/09 16:20:39;;;;;;;8.75;5.20;;;;;;;;;;6247234;23;20004;-79
2022/10/09 16:23:05;;;;;;;;;;;;;;;;;;6248033;22;20050;-79
2022/10/09 16:25:31;;;;;;;6.32;5.28;;;;;;;;;;6247378;23;19911;-80
2022/10/09 16:27:56;;;;;;;6.45;5.00;;;;;;;;;;6247455;23;20367;-80
2022/10/09 16:30:22;;;;;;;5.03;4.10;;;;;;;;;;6247487;23;20011;-80
2022/10/09 16:32:48;;;;;;;7.47;4.30;;;;;;;;;;6247549;22;20408;-79
2022/10/09 16:35:14;;;;;;;4.40;3.70;;;;;;;;;;6247777;23;20331;-80
2022/10/09 16:37:40;;;;;;;5.43;3.60;;;;;;;;;;6247210;23;20434;-80
2022/10/09 16:40:05;;;;;;;4.57;3.45;;;;;;;;;;6247265;23;19996;-80
2022/10/09 16:42:34;;;;;;;6.32;3.60;;;;;;;;;;6247122;22;20004;-80
2022/10/09 16:45:00;;;;;;;5.65;3.75;;;;;;;;;;6248898;23;20005;-79
2022/10/09 16:47:27;;;;;;;3.63;3.38;;;;;;;;;;6247174;23;20319;-79
2022/10/09 16:49:52;;;;;;;5.68;4.25;;;;;;;;;;6247263;23;20007;-81
2022/10/09 16:52:18;;;;;;;7.20;4.78;;;;;;;;;;6247245;22;20004;-82
2022/10/09 16:54:43;;;;;;;5.05;3.95;;;;;;;;;;6247156;23;19996;-80
2022/10/09 16:57:09;;;;;;;5.82;4.15;;;;;;;;;;6220099;23;20083;-79
2022/10/09 16:59:35;;;;;;;4.85;3.97;;;;;;;;;;6247530;23;20005;-79
2022/10/09 17:02:02;;;;;;;5.68;4.15;;;;;;;;;;6246028;22;20343;-79
2022/10/09 17:04:28;;;;;;;4.75;4.30;;;;;;;;;;6246525;23;20031;-79
2022/10/09 17:06:54;;;;;;;5.45;4.13;;;;;;;;;;6246810;23;20001;-82
2022/10/09 17:09:20;;;;;;;4.95;4.05;;;;;;;;;;6246979;23;20004;-79
2022/10/09 17:11:45;;;;;;;6.40;4.70;;;;;;;;;;6246760;22;20075;-81
2022/10/09 17:14:11;;;;;;;7.63;4.65;;;;;;;;;;6246548;23;20046;-78
2022/10/09 17:16:39;;;;;;;5.68;4.30;;;;;;;;;;6246637;23;20454;-79
2022/10/09 17:19:05;;;;;;;5.53;4.28;;;;;;;;;;6246742;23;20077;-80
2022/10/09 17:21:31;;;;;;;8.30;4.53;;;;;;;;;;6246620;22;20411;-82
2022/10/09 17:23:58;;;;;;;8.43;4.90;;;;;;;;;;6246787;23;20034;-79
2022/10/09 17:26:25;;;;;;;6.28;4.38;;;;;;;;;;6246309;23;20070;-83
2022/10/09 17:28:51;;;;;;;5.13;3.92;;;;;;;;;;6246647;23;20004;-80
2022/10/09 17:31:20;;;;;;;4.88;4.32;;;;;;;;;;6246713;23;20004;-79
2022/10/09 17:33:47;;;;;;;4.47;3.97;;;;;;;;;;6246677;23;20424;-78
2022/10/09 17:36:16;;;;;;;4.57;4.10;;;;;;;;;;6246759;23;19996;-79
2022/10/09 17:38:42;;;;;;;5.93;4.13;;;;;;;;;;6219903;23;20087;-78
2022/10/09 17:41:09;;;;;;;6.07;4.38;;;;;;;;;;6246637;23;20010;-78
2022/10/09 17:43:36;;;;;;;5.38;4.32;;;;;;;;;;6246444;22;20083;-77
2022/10/09 17:46:02;;;;;;;6.30;4.20;;;;;;;;;;6246769;23;20004;-77
2022/10/09 17:48:28;;;;;;;6.07;4.63;;;;;;;;;;6246702;23;20004;-77
2022/10/09 17:50:56;;;;;;;4.55;4.15;;;;;;;;;;6246599;23;20381;-78
2022/10/09 17:53:23;;;;;;;4.70;4.30;;;;;;;;;;6246441;22;20007;-78
2022/10/09 17:55:50;;;;;;;7.78;4.70;;;;;;;;;;6246519;23;20039;-78
2022/10/09 17:58:17;;;;;;;6.70;4.47;;;;;;;;;;6246286;23;20007;-79
2022/10/09 18:00:42;;;;;;;5.60;4.47;;;;;;;;;;6246271;23;20019;-78
2022/10/09 18:03:08;;;;;;;5.50;4.35;;;;;;;;;;6246567;22;20319;-79
2022/10/09 18:05:47;;;;;;;4.63;4.22;;;;;;;;;;6246536;23;20004;-77
2022/10/09 18:08:14;;;;;;;5.47;4.80;;;;;;;;;;6246279;23;20389;-79
2022/10/09 18:10:40;;;;;;;5.00;3.92;;;;;;;;;;6246601;23;20324;-78
2022/10/09 18:13:07;;;;;;;5.28;3.85;;;;;;;;;;6246235;22;20004;-78
2022/10/09 18:15:40;;;;;;;4.03;3.60;;;;;;;;;;6246346;23;20004;-79
2022/10/09 18:18:05;;;;;;;8.25;4.25;;;;;;;;;;6246224;23;20000;-80
2022/10/09 18:20:33;;;;;;;7.13;4.28;;;;;;;;;;6246312;23;20015;-80
2022/10/09 18:22:58;;;;;;;6.70;4.43;;;;;;;;;;6246265;22;20000;-78
2022/10/09 18:25:24;;;;;;;9.05;5.00;;;;;;;;;;6246076;23;20035;-78
2022/10/09 18:27:49;;;;;;;6.25;4.53;;;;;;;;;;6246277;23;20005;-78
2022/10/09 18:30:15;;;;;;;5.70;4.97;;;;;;;;;;6246262;23;20420;-78
2022/10/09 18:32:41;;;;;;;5.85;5.35;;;;;;;;;;6246249;22;20008;-78
2022/10/09 18:35:07;;;;;;;6.18;5.38;;;;;;;;;;6246278;23;20028;-79
2022/10/09 18:37:32;;;;;;;6.00;5.00;;;;;;;;;;6246238;23;20054;-78
2022/10/09 18:39:58;;;;;;;5.78;5.25;;;;;;;;;;6246507;23;20059;-77
2022/10/09 18:42:23;;;;;;;6.25;4.85;;;;;;;;;;6248589;22;20083;-78
2022/10/09 18:44:49;;;;;;;6.13;5.13;;;;;;;;;;6221608;23;20038;-77
2022/10/09 18:47:17;;;;;;;5.00;4.28;;;;;;;;;;6221550;23;20000;-79
2022/10/09 18:49:46;;;;;;;5.13;4.60;;;;;;;;;;6248335;23;20027;-79
2022/10/09 18:52:12;;;;;;;6.05;4.40;;;;;;;;;;6248389;22;20011;-80
2022/10/09 18:54:39;;;;;;;4.97;4.47;;;;;;;;;;6248437;23;20004;-80
2022/10/09 18:57:05;;;;;;;5.60;5.10;;;;;;;;;;6248462;23;20000;-79
2022/10/09 18:59:34;;;;;;;5.95;4.70;;;;;;;;;;6248405;23;20023;-78
2022/10/09 19:01:59;;;;;;;7.18;4.85;;;;;;;;;;6248136;22;20026;-78
2022/10/09 19:04:25;;;;;;;6.15;4.82;;;;;;;;;;6248117;23;20031;-79
2022/10/09 19:06:53;;;;;;;5.15;4.68;;;;;;;;;;6248213;23;20008;-79
2022/10/09 19:09:18;;;;;;;4.50;4.10;;;;;;;;;;6248406;23;20072;-80
2022/10/09 19:11:44;;;;;;;7.88;6.00;;;;;;;;;;6248180;22;20031;-78
2022/10/09 19:14:09;;;;;;;6.50;5.22;;;;;;;;;;6248061;23;20004;-78
2022/10/09 19:16:35;;;;;;;8.25;4.72;;;;;;;;;;6248272;23;20050;-78
2022/10/09 19:19:01;;;;;;;4.78;4.28;;;;;;;;;;6248075;23;20431;-79
2022/10/09 19:21:27;;;;;;;4.95;4.35;;;;;;;;;;6247743;22;20474;-79
2022/10/09 19:23:53;;;;;;;6.78;4.70;;;;;;;;;;6248150;23;20033;-79
2022/10/09 19:26:19;;;;;;;5.47;4.50;;;;;;;;;;6247887;23;20019;-77
2022/10/09 19:28:45;;;;;;;5.13;4.63;;;;;;;;;;6248243;23;20004;-78
2022/10/09 19:31:12;;;;;;;5.45;4.32;;;;;;;;;;6247954;23;20000;-79
2022/10/09 19:33:41;;;;;;;4.80;4.30;;;;;;;;;;6247915;22;20004;-78
2022/10/09 19:36:10;;;;;;;7.07;5.38;;;;;;;;;;6248129;23;20436;-78
2022/10/09 19:38:35;;;;;;;5.00;4.18;;;;;;;;;;6247974;23;20004;-78
2022/10/09 19:41:06;;;;;;;4.78;4.30;;;;;;;;;;6247827;23;20386;-79
2022/10/09 19:43:32;;;;;;;5.30;4.47;;;;;;;;;;6247769;22;20058;-79
2022/10/09 19:46:09;;;;;;;5.03;4.53;;;;;;;;;;6247876;23;20075;-79
2022/10/09 19:48:35;;;;;;;5.15;4.38;;;;;;;;;;6247793;23;20518;-79
2022/10/09 19:51:06;;;;;;;6.38;4.57;;;;;;;;;;6247831;23;20007;-79
2022/10/09 19:53:31;;;;;;;11.00;4.60;;;;;;;;;;6247751;22;20004;-79
2022/10/09 19:55:57;;;;;;;5.15;4.13;;;;;;;;;;6247618;23;20012;-77
2022/10/09 19:58:22;;;;;;;6.35;4.40;;;;;;;;;;6247598;23;20053;-79
2022/10/09 20:00:48;;;;;;;6.15;4.85;;;;;;;;;;6247666;23;20008;-77
2022/10/09 20:03:14;;;;;;;6.22;4.40;;;;;;;;;;6247903;22;20038;-77
2022/10/09 20:05:39;;;;;;;4.93;4.50;;;;;;;;;;6247766;23;20000;-77
2022/10/09 20:08:05;;;;;;;5.72;4.25;;;;;;;;;;6247470;23;20008;-77
2022/10/09 20:10:31;;;;;;;5.18;4.57;;;;;;;;;;6247786;23;20004;-78
2022/10/09 20:12:56;;;;;;;5.88;4.50;;;;;;;;;;6247556;22;20030;-78
2022/10/09 20:15:22;;;;;;;5.22;4.63;;;;;;;;;;6247378;23;20035;-78
2022/10/09 20:17:48;;;;;;;5.15;4.63;;;;;;;;;;6247568;23;19996;-78
2022/10/09 20:20:14;;;;;;;5.28;4.65;;;;;;;;;;6247397;23;20428;-78
2022/10/09 20:22:39;;;;;;;6.28;4.85;;;;;;;;;;6247497;22;20003;-78
2022/10/09 20:25:05;;;;;;;5.82;4.30;;;;;;;;;;6247411;23;20000;-78
2022/10/09 20:27:31;;;;;;;4.88;4.43;;;;;;;;;;6247219;23;20521;-78
2022/10/09 20:29:57;;;;;;;5.80;4.20;;;;;;;;;;6247348;23;20004;-78
2022/10/09 20:32:24;;;;;;;7.05;4.40;;;;;;;;;;6247547;22;20099;-78
2022/10/09 20:34:50;;;;;;;6.18;5.20;;;;;;;;;;6247416;23;20053;-78
2022/10/09 20:37:15;;;;;;;6.72;5.13;;;;;;;;;;6247503;23;19996;-78
2022/10/09 20:39:41;;;;;;;4.70;4.13;;;;;;;;;;6247493;23;20007;-78
2022/10/09 20:42:07;;;;;;;5.72;4.80;;;;;;;;;;6247247;22;20011;-78
2022/10/09 20:44:32;;;;;;;5.15;4.55;;;;;;;;;;6247124;23;20026;-78
2022/10/09 20:46:58;;;;;;;5.30;4.35;;;;;;;;;;6247380;23;20487;-78
2022/10/09 20:49:23;;;;;;;7.03;4.78;;;;;;;;;;6248299;23;20004;-78
2022/10/09 20:51:51;;;;;;;5.85;4.90;;;;;;;;;;6247101;22;20004;-78
2022/10/09 20:54:19;;;;;;;6.57;4.78;;;;;;;;;;6247277;23;20015;-78
2022/10/09 20:56:44;;;;;;;7.88;4.95;;;;;;;;;;6247226;23;20086;-78
2022/10/09 20:59:10;;;;;;;5.50;4.90;;;;;;;;;;6247051;23;20419;-78
2022/10/09 21:01:36;;;;;;;4.85;4.30;;;;;;;;;;6246968;22;20008;-78
2022/10/09 21:04:03;;;;;;;4.78;4.38;;;;;;;;;;6246951;23;20008;-78
2022/10/09 21:06:29;;;;;;;5.88;4.75;;;;;;;;;;6247132;23;20015;-78
2022/10/09 21:08:55;;;;;;;6.15;4.78;;;;;;;;;;6247103;23;19996;-79
2022/10/09 21:11:21;;;;;;;6.95;5.05;;;;;;;;;;6246883;22;20075;-79
2022/10/09 21:13:48;;;;;;;5.85;5.28;;;;;;;;;;6247007;23;20004;-78
2022/10/09 21:16:17;;;;;;;7.68;5.03;;;;;;;;;;6247227;23;20007;-78
2022/10/09 21:18:43;;;;;;;;;;;;;;;;;;6247623;23;20007;-79
2022/10/09 21:21:11;;;;;;;5.75;4.80;;;;;;;;;;6219904;23;19908;-76
2022/10/09 21:23:37;;;;;;;5.33;4.70;;;;;;;;;;6246562;22;20095;-76
2022/10/09 21:26:03;;;;;;;6.03;4.85;;;;;;;;;;6246755;23;20292;-76
2022/10/09 21:28:29;;;;;;;5.82;5.22;;;;;;;;;;6246922;23;20076;-76
2022/10/09 21:30:55;;;;;;;6.25;5.20;;;;;;;;;;6246906;23;19996;-77
2022/10/09 21:33:21;;;;;;;5.90;4.68;;;;;;;;;;6246721;22;20007;-76
2022/10/09 21:35:49;;;;;;;4.90;4.40;;;;;;;;;;6246852;23;20011;-76
2022/10/09 21:38:18;;;;;;;7.85;4.97;;;;;;;;;;6246813;23;20070;-76
2022/10/09 21:40:44;;;;;;;6.63;4.70;;;;;;;;;;6246595;23;20058;-76
2022/10/09 21:43:09;;;;;;;6.15;5.35;;;;;;;;;;6246722;22;20000;-77
2022/10/09 21:45:36;;;;;;;7.40;5.78;;;;;;;;;;6246721;23;20062;-77
2022/10/09 21:48:02;;;;;;;9.18;5.32;;;;;;;;;;6219795;23;20015;-77
2022/10/09 21:50:28;;;;;;;8.40;5.65;;;;;;;;;;6219823;23;20343;-77
2022/10/09 21:52:53;;;;;;;8.07;6.00;;;;;;;;;;6246582;22;20004;-77
2022/10/09 21:55:19;;;;;;;6.43;4.65;;;;;;;;;;6246491;23;20071;-76
2022/10/09 21:57:44;;;;;;;7.10;5.13;;;;;;;;;;6246644;23;20412;-77
2022/10/09 22:00:10;;;;;;;5.05;4.40;;;;;;;;;;6246816;23;20297;-77
2022/10/09 22:02:36;;;;;;;6.40;5.72;;;;;;;;;;6246469;22;19996;-77
2022/10/09 22:05:01;;;;;;;6.55;5.35;;;;;;;;;;6246463;23;20010;-77
2022/10/09 22:07:29;;;;;;;5.43;4.93;;;;;;;;;;6246622;23;20032;-77
2022/10/09 22:09:55;;;;;;;5.68;5.05;;;;;;;;;;6246479;23;20008;-77
2022/10/09 22:12:21;;;;;;;5.88;5.00;;;;;;;;;;6246516;22;20374;-77
2022/10/09 22:14:46;;;;;;;6.45;4.82;;;;;;;;;;6246053;23;20007;-78
2022/10/09 22:17:13;;;;;;;5.22;4.80;;;;;;;;;;6246317;23;20004;-79
2022/10/09 22:19:38;;;;;;;5.97;4.90;;;;;;;;;;6219657;23;20050;-78
2022/10/09 22:22:04;;;;;;;5.63;5.13;;;;;;;;;;6246161;22;20408;-78
2022/10/09 22:24:30;;;;;;;7.70;5.60;;;;;;;;;;6246396;23;20006;-78
2022/10/09 22:26:56;;;;;;;6.20;5.38;;;;;;;;;;6245868;23;20016;-78
2022/10/09 22:29:23;;;;;;;6.55;5.13;;;;;;;;;;6246680;23;20000;-78
2022/10/09 22:31:48;;;;;;;6.60;5.10;;;;;;;;;;6246406;22;20083;-78